createdAt,value
2023-05-14T00:02:10.212Z,11.58
2023-05-14T00:04:38.506Z,11.58
2023-05-14T00:07:10.663Z,11.61
2023-05-14T00:09:38.893Z,11.60
2023-05-14T00:12:07.700Z,11.58
2023-05-14T00:14:35.931Z,11.53
2023-05-14T00:17:04.158Z,11.53
2023-05-14T00:19:33.736Z,11.53
2023-05-14T00:22:01.934Z,11.55
2023-05-14T00:24:30.181Z,11.67
2023-05-14T00:26:58.410Z,11.67
2023-05-14T00:29:26.804Z,11.70
2023-05-14T00:31:55.092Z,11.67
2023-05-14T00:34:23.373Z,11.61
2023-05-14T00:36:53.813Z,11.64
2023-05-14T00:39:22.012Z,11.61
2023-05-14T00:41:50.174Z,11.58
2023-05-14T00:44:18.344Z,11.57
2023-05-14T00:46:46.706Z,11.55
2023-05-14T00:49:15.001Z,11.55
2023-05-14T00:51:46.842Z,11.54
2023-05-14T00:54:17.966Z,11.53
2023-05-14T00:56:46.856Z,11.51
2023-05-14T00:59:15.311Z,11.51
2023-05-14T01:01:43.674Z,11.51
2023-05-14T01:04:12.897Z,11.50
2023-05-14T01:06:52.444Z,11.55
2023-05-14T01:09:26.740Z,11.53
2023-05-14T01:12:02.109Z,11.51
2023-05-14T01:14:39.426Z,11.57
2023-05-14T01:17:09.102Z,11.57
2023-05-14T01:19:41.414Z,11.61
2023-05-14T01:22:11.191Z,11.72
2023-05-14T01:24:40.047Z,11.68
2023-05-14T01:27:14.726Z,11.67
2023-05-14T01:29:46.661Z,11.64
2023-05-14T01:32:16.296Z,11.60
2023-05-14T01:34:46.283Z,11.54
2023-05-14T01:37:17.512Z,11.48
2023-05-14T01:39:47.206Z,11.38
2023-05-14T01:42:15.839Z,11.28
2023-05-14T01:44:45.502Z,11.24
2023-05-14T01:47:13.777Z,11.24
2023-05-14T01:49:42.003Z,11.31
2023-05-14T01:52:10.131Z,11.31
2023-05-14T01:54:39.769Z,11.36
2023-05-14T01:57:07.880Z,11.44
2023-05-14T01:59:36.981Z,11.48
2023-05-14T02:02:05.435Z,11.50
2023-05-14T02:04:33.661Z,11.53
2023-05-14T02:07:01.855Z,11.55
2023-05-14T02:09:30.770Z,11.54
2023-05-14T02:12:01.079Z,11.61
2023-05-14T02:14:35.231Z,11.65
2023-05-14T02:17:04.072Z,11.65
2023-05-14T02:19:32.376Z,11.64
2023-05-14T02:22:01.127Z,11.58
2023-05-14T02:24:29.365Z,11.58
2023-05-14T02:27:00.167Z,11.63
2023-05-14T02:29:29.984Z,11.63
2023-05-14T02:31:58.420Z,11.58
2023-05-14T02:34:27.138Z,11.55
2023-05-14T02:36:55.673Z,11.53
2023-05-14T02:39:23.884Z,11.57
2023-05-14T02:41:51.977Z,11.50
2023-05-14T02:44:20.167Z,11.44
2023-05-14T02:46:49.852Z,11.41
2023-05-14T02:49:18.169Z,11.37
2023-05-14T02:51:46.357Z,11.34
2023-05-14T02:54:16.547Z,11.28
2023-05-14T02:56:44.866Z,11.28
2023-05-14T02:59:13.074Z,11.24
2023-05-14T03:01:41.912Z,11.24
2023-05-14T03:04:12.019Z,11.30
2023-05-14T03:06:40.170Z,11.30
2023-05-14T03:09:08.533Z,11.30
2023-05-14T03:11:36.860Z,11.30
2023-05-14T03:14:05.075Z,11.33
2023-05-14T03:16:33.445Z,11.31
2023-05-14T03:19:01.639Z,11.31
2023-05-14T03:21:32.691Z,11.33
2023-05-14T03:24:00.987Z,11.38
2023-05-14T03:26:29.181Z,11.40
2023-05-14T03:28:57.280Z,11.41
2023-05-14T03:31:26.471Z,11.45
2023-05-14T03:33:57.976Z,11.44
2023-05-14T03:36:26.217Z,11.44
2023-05-14T03:38:55.830Z,11.45
2023-05-14T03:41:24.737Z,11.40
2023-05-14T03:43:52.923Z,11.38
2023-05-14T03:46:21.108Z,11.40
2023-05-14T03:48:49.360Z,11.38
2023-05-14T03:51:17.677Z,11.40
2023-05-14T03:53:46.188Z,11.41
2023-05-14T03:56:16.272Z,11.41
2023-05-14T03:58:44.438Z,11.40
2023-05-14T04:01:12.806Z,11.43
2023-05-14T04:03:41.231Z,11.44
2023-05-14T04:06:10.200Z,11.45
2023-05-14T04:08:38.386Z,11.44
2023-05-14T04:11:07.471Z,11.44
2023-05-14T04:13:37.160Z,11.44
2023-05-14T04:16:05.736Z,11.47
2023-05-14T04:18:35.389Z,11.50
2023-05-14T04:21:03.885Z,11.45
2023-05-14T04:23:32.559Z,11.50
2023-05-14T04:26:00.756Z,11.47
2023-05-14T04:28:28.869Z,11.45
2023-05-14T04:30:58.420Z,11.47
2023-05-14T04:33:26.560Z,11.41
2023-05-14T04:35:54.940Z,11.41
2023-05-14T04:38:23.357Z,11.50
2023-05-14T04:40:51.660Z,11.53
2023-05-14T04:43:19.819Z,11.58
2023-05-14T04:45:48.044Z,11.57
2023-05-14T04:48:17.687Z,11.55
2023-05-14T04:50:46.133Z,11.51
2023-05-14T04:53:14.331Z,11.54
2023-05-14T04:55:42.459Z,11.55
2023-05-14T04:58:10.663Z,11.61
2023-05-14T05:00:40.168Z,11.61
2023-05-14T05:03:08.921Z,11.63
2023-05-14T05:05:38.733Z,11.67
2023-05-14T05:08:06.960Z,11.65
2023-05-14T05:10:35.425Z,11.63
2023-05-14T05:13:03.533Z,11.60
2023-05-14T05:15:31.839Z,11.64
2023-05-14T05:18:00.058Z,11.60
2023-05-14T05:20:29.065Z,11.63
2023-05-14T05:22:59.562Z,11.65
2023-05-14T05:25:28.381Z,11.68
2023-05-14T05:27:57.018Z,11.71
2023-05-14T05:30:25.484Z,11.70
2023-05-14T05:32:54.034Z,11.75
2023-05-14T05:35:22.279Z,11.74
2023-05-14T05:37:50.587Z,11.75
2023-05-14T05:40:20.320Z,11.75
2023-05-14T05:42:48.447Z,11.74
2023-05-14T05:45:16.668Z,11.78
2023-05-14T05:47:45.051Z,11.81
2023-05-14T05:50:13.614Z,11.79
2023-05-14T05:52:42.251Z,11.79
2023-05-14T05:55:11.193Z,11.77
2023-05-14T05:57:40.751Z,11.78
2023-05-14T06:00:13.931Z,11.78
2023-05-14T06:02:42.659Z,11.77
2023-05-14T06:05:11.863Z,11.75
2023-05-14T06:07:40.453Z,11.78
2023-05-14T06:10:09.560Z,11.79
2023-05-14T06:12:37.779Z,11.77
2023-05-14T06:15:08.860Z,11.77
2023-05-14T06:17:37.110Z,11.79
2023-05-14T06:20:07.986Z,11.77
2023-05-14T06:22:36.552Z,11.79
2023-05-14T06:25:05.415Z,11.78
2023-05-14T06:27:33.793Z,11.75
2023-05-14T06:30:02.167Z,11.75
2023-05-14T06:32:31.820Z,11.85
2023-05-14T06:35:00.152Z,11.92
2023-05-14T06:37:28.415Z,11.98
2023-05-14T06:39:58.771Z,11.99
2023-05-14T06:42:27.465Z,11.88
2023-05-14T06:44:56.124Z,11.88
2023-05-14T06:47:26.709Z,11.85
2023-05-14T06:49:58.873Z,11.77
2023-05-14T06:52:27.317Z,11.75
2023-05-14T06:54:58.382Z,11.75
2023-05-14T06:57:26.797Z,11.79
2023-05-14T06:59:55.037Z,11.81
2023-05-14T07:02:23.264Z,11.83
2023-05-14T07:04:51.553Z,11.91
2023-05-14T07:07:21.684Z,11.88
2023-05-14T07:09:49.893Z,11.88
2023-05-14T07:12:18.304Z,11.89
2023-05-14T07:14:46.816Z,11.91
2023-05-14T07:17:15.140Z,11.95
2023-05-14T07:19:43.428Z,12.02
2023-05-14T07:22:11.647Z,12.05
2023-05-14T07:24:43.328Z,12.09
2023-05-14T07:27:12.565Z,12.10
2023-05-14T07:29:40.916Z,12.15
2023-05-14T07:32:09.164Z,12.19
2023-05-14T07:34:37.541Z,12.26
2023-05-14T07:37:06.240Z,12.32
2023-05-14T07:39:34.478Z,12.36
2023-05-14T07:42:06.225Z,12.41
2023-05-14T07:44:34.553Z,12.47
2023-05-14T07:47:04.310Z,12.48
2023-05-14T07:49:32.588Z,12.56
2023-05-14T07:52:00.882Z,12.57
2023-05-14T07:54:29.172Z,12.63
2023-05-14T07:56:57.402Z,12.71
2023-05-14T07:59:28.198Z,12.71
2023-05-14T08:01:56.908Z,12.78
2023-05-14T08:04:25.284Z,12.69
2023-05-14T08:06:53.655Z,12.63
2023-05-14T08:09:21.865Z,12.64
2023-05-14T08:11:50.285Z,12.64
2023-05-14T08:14:18.498Z,12.74
2023-05-14T08:16:48.723Z,12.75
2023-05-14T08:19:17.665Z,12.73
2023-05-14T08:21:46.462Z,12.74
2023-05-14T08:24:15.252Z,12.74
2023-05-14T08:26:43.564Z,12.74
2023-05-14T08:29:12.949Z,12.77
2023-05-14T08:31:43.187Z,12.81
2023-05-14T08:34:13.033Z,12.83
2023-05-14T08:36:41.379Z,12.88
2023-05-14T08:39:09.765Z,12.85
2023-05-14T08:41:38.759Z,12.87
2023-05-14T08:44:10.561Z,12.83
2023-05-14T08:46:40.092Z,12.87
2023-05-14T08:49:17.818Z,12.88
2023-05-14T08:51:48.613Z,12.91
2023-05-14T08:54:18.279Z,12.94
2023-05-14T08:56:48.199Z,12.99
2023-05-14T08:59:17.731Z,13.01
2023-05-14T09:01:49.452Z,13.05
2023-05-14T09:04:23.314Z,13.05
2023-05-14T09:06:53.591Z,13.06
2023-05-14T09:09:23.258Z,13.05
2023-05-14T09:11:52.685Z,12.96
2023-05-14T09:14:21.817Z,12.95
2023-05-14T09:16:51.825Z,12.96
2023-05-14T09:19:22.414Z,12.91
2023-05-14T09:21:51.462Z,12.88
2023-05-14T09:24:26.269Z,12.84
2023-05-14T09:26:57.496Z,12.85
2023-05-14T09:29:27.558Z,12.83
2023-05-14T09:31:57.995Z,12.83
2023-05-14T09:34:29.912Z,12.81
2023-05-14T09:36:58.893Z,12.85
2023-05-14T09:39:27.652Z,12.85
2023-05-14T09:41:56.497Z,12.81
2023-05-14T09:44:36.382Z,12.80
2023-05-14T09:47:04.892Z,12.77
2023-05-14T09:49:35.478Z,12.78
2023-05-14T09:52:04.236Z,12.81
2023-05-14T09:54:34.466Z,12.80
2023-05-14T09:57:02.911Z,12.80
2023-05-14T09:59:31.417Z,12.81
2023-05-14T10:02:00.600Z,12.84
2023-05-14T10:04:29.209Z,12.78
2023-05-14T10:07:02.311Z,12.87
2023-05-14T10:09:31.303Z,12.80
2023-05-14T10:12:02.131Z,12.83
2023-05-14T10:14:36.866Z,12.81
2023-05-14T10:17:07.992Z,12.77
2023-05-14T10:19:40.574Z,12.80
2023-05-14T10:22:12.877Z,12.78
2023-05-14T10:24:43.456Z,12.78
2023-05-14T10:27:12.331Z,12.78
2023-05-14T10:29:41.147Z,12.84
2023-05-14T10:32:10.573Z,12.88
2023-05-14T10:34:41.602Z,12.88
2023-05-14T10:37:13.505Z,12.85
2023-05-14T10:39:48.493Z,12.77
2023-05-14T10:42:19.590Z,12.78
2023-05-14T10:44:55.194Z,12.78
2023-05-14T10:47:23.915Z,12.83
2023-05-14T10:49:55.185Z,12.83
2023-05-14T10:52:25.619Z,12.81
2023-05-14T10:54:56.074Z,12.84
2023-05-14T10:57:26.373Z,12.85
2023-05-14T10:59:56.172Z,12.84
2023-05-14T11:02:26.660Z,12.83
2023-05-14T11:04:58.118Z,12.85
2023-05-14T11:07:30.305Z,12.81
2023-05-14T11:10:03.532Z,12.78
2023-05-14T11:12:32.532Z,12.78
2023-05-14T11:15:03.960Z,12.78
2023-05-14T11:17:32.812Z,12.74
2023-05-14T11:20:01.575Z,12.73
2023-05-14T11:22:31.349Z,12.74
2023-05-14T11:24:59.757Z,12.73
2023-05-14T11:27:28.135Z,12.74
2023-05-14T11:29:58.182Z,12.71
2023-05-14T11:32:27.413Z,12.71
2023-05-14T11:34:56.049Z,12.69
2023-05-14T11:37:24.838Z,12.69
2023-05-14T11:39:55.995Z,12.67
2023-05-14T11:42:25.965Z,12.67
2023-05-14T11:44:56.767Z,12.67
2023-05-14T11:47:25.195Z,12.64
2023-05-14T11:49:54.814Z,12.61
2023-05-14T11:52:23.351Z,12.61
2023-05-14T11:54:52.040Z,12.61
2023-05-14T11:57:23.906Z,12.61
2023-05-14T11:59:58.741Z,12.61
2023-05-14T12:02:29.858Z,12.61
2023-05-14T12:04:59.122Z,12.63
2023-05-14T12:07:31.510Z,12.63
2023-05-14T12:10:03.482Z,12.61
2023-05-14T12:12:41.348Z,12.61
2023-05-14T12:15:14.853Z,12.64
2023-05-14T12:17:46.517Z,12.67
2023-05-14T12:20:16.153Z,12.68
2023-05-14T12:22:44.768Z,12.69
2023-05-14T12:25:14.867Z,12.69
2023-05-14T12:27:46.297Z,12.73
2023-05-14T12:32:47.064Z,12.69
2023-05-14T12:35:39.675Z,12.65
2023-05-14T12:38:08.362Z,12.63
2023-05-14T12:40:37.818Z,12.64
2023-05-14T12:43:07.895Z,12.60
2023-05-14T12:45:36.655Z,12.61
2023-05-14T12:48:16.865Z,12.56
2023-05-14T12:50:46.757Z,12.54
2023-05-14T12:53:16.436Z,12.53
2023-05-14T12:55:45.868Z,12.50
2023-05-14T12:58:17.849Z,12.46
2023-05-14T13:00:47.536Z,12.47
2023-05-14T13:03:15.984Z,12.37
2023-05-14T13:05:44.438Z,12.36
2023-05-14T13:08:15.002Z,12.33
2023-05-14T13:10:43.358Z,12.30
2023-05-14T13:13:13.074Z,12.29
2023-05-14T13:15:49.097Z,12.26
2023-05-14T13:18:19.498Z,12.25
2023-05-14T13:20:48.651Z,12.26
2023-05-14T13:23:16.875Z,12.25
2023-05-14T13:25:46.133Z,12.29
2023-05-14T13:28:15.845Z,12.26
2023-05-14T13:31:07.115Z,12.28
2023-05-14T13:33:39.536Z,12.28
2023-05-14T13:36:10.224Z,12.30
2023-05-14T13:38:38.886Z,12.30
2023-05-14T13:41:07.567Z,12.32
2023-05-14T13:43:36.921Z,12.32
2023-05-14T13:46:07.580Z,12.32
2023-05-14T13:48:38.071Z,12.32
2023-05-14T13:51:06.569Z,12.30
2023-05-14T13:53:34.997Z,12.29
2023-05-14T13:56:03.661Z,12.30
2023-05-14T13:58:32.237Z,12.30
2023-05-14T14:01:00.573Z,12.29
2023-05-14T14:03:30.286Z,12.30
2023-05-14T14:05:58.740Z,12.29
2023-05-14T14:08:27.056Z,12.30
2023-05-14T14:10:55.827Z,12.29
2023-05-14T14:13:24.560Z,12.29
2023-05-14T14:15:53.084Z,12.32
2023-05-14T14:18:21.535Z,12.32
2023-05-14T14:20:51.350Z,12.33
2023-05-14T14:23:19.796Z,12.33
2023-05-14T14:25:48.040Z,12.36
2023-05-14T14:28:16.320Z,12.37
2023-05-14T14:30:46.742Z,12.37
2023-05-14T14:33:17.107Z,12.40
2023-05-14T14:35:45.664Z,12.40
2023-05-14T14:38:15.421Z,12.41
2023-05-14T14:40:43.655Z,12.41
2023-05-14T14:43:12.639Z,12.43
2023-05-14T14:45:40.952Z,12.46
2023-05-14T14:48:26.726Z,12.44
2023-05-14T14:50:55.639Z,12.47
2023-05-14T14:53:25.837Z,12.47
2023-05-14T14:55:54.446Z,12.48
2023-05-14T14:58:23.053Z,12.50
2023-05-14T15:00:53.078Z,12.50
2023-05-14T15:03:21.995Z,12.51
2023-05-14T15:05:51.238Z,12.50
2023-05-14T15:08:19.546Z,12.48
2023-05-14T15:10:49.459Z,12.51
2023-05-14T15:13:17.761Z,12.48
2023-05-14T15:15:49.229Z,12.46
2023-05-14T15:18:17.522Z,12.47
2023-05-14T15:20:45.898Z,12.50
2023-05-14T15:23:14.284Z,12.44
2023-05-14T15:25:42.601Z,12.43
2023-05-14T15:28:12.534Z,12.41
2023-05-14T15:30:40.987Z,12.40
2023-05-14T15:33:09.805Z,12.40
2023-05-14T15:35:37.990Z,12.37
2023-05-14T15:38:06.336Z,12.33
2023-05-14T15:40:35.368Z,12.29
2023-05-14T15:43:03.654Z,12.26
2023-05-14T15:45:33.477Z,12.26
2023-05-14T15:48:01.790Z,12.23
2023-05-14T15:50:30.398Z,12.22
2023-05-14T15:52:58.708Z,12.18
2023-05-14T15:55:29.900Z,12.15
2023-05-14T15:57:58.438Z,12.15
2023-05-14T16:00:27.180Z,12.18
2023-05-14T16:02:57.667Z,12.20
2023-05-14T16:05:26.033Z,12.22
2023-05-14T16:07:54.524Z,12.22
2023-05-14T16:10:22.893Z,12.20
2023-05-14T16:12:51.638Z,12.22
2023-05-14T16:15:20.050Z,12.20
2023-05-14T16:17:48.920Z,12.19
2023-05-14T16:20:19.156Z,12.18
2023-05-14T16:22:47.444Z,12.18
2023-05-14T16:25:15.744Z,12.15
2023-05-14T16:27:45.014Z,12.13
2023-05-14T16:30:13.763Z,12.13
2023-05-14T16:32:42.515Z,12.13
2023-05-14T16:35:11.079Z,12.10
2023-05-14T16:37:41.011Z,12.13
2023-05-14T16:40:11.724Z,12.13
2023-05-14T16:42:40.256Z,12.12
2023-05-14T16:45:09.984Z,12.13
2023-05-14T16:47:38.672Z,12.10
2023-05-14T16:50:08.973Z,12.05
2023-05-14T16:52:37.642Z,12.05
2023-05-14T16:55:08.215Z,12.02
2023-05-14T16:57:38.912Z,12.02
2023-05-14T17:00:09.614Z,12.02
2023-05-14T17:02:38.237Z,12.09
2023-05-14T17:05:09.682Z,12.05
2023-05-14T17:07:38.852Z,12.05
2023-05-14T17:10:10.070Z,12.05
2023-05-14T17:12:38.289Z,12.05
2023-05-14T17:15:08.452Z,12.06
2023-05-14T17:17:36.818Z,12.02
2023-05-14T17:20:06.821Z,12.03
2023-05-14T17:22:35.852Z,12.01
2023-05-14T17:25:04.430Z,12.02
2023-05-14T17:27:34.364Z,12.01
2023-05-14T17:30:02.644Z,12.03
2023-05-14T17:32:31.525Z,12.10
2023-05-14T17:34:59.974Z,12.12
2023-05-14T17:37:28.225Z,12.15
2023-05-14T17:39:56.698Z,12.12
2023-05-14T17:42:25.265Z,12.16
2023-05-14T17:44:55.070Z,12.20
2023-05-14T17:47:23.902Z,12.22
2023-05-14T17:49:52.190Z,12.25
2023-05-14T17:52:20.980Z,12.29
2023-05-14T17:54:49.625Z,12.28
2023-05-14T17:57:18.113Z,12.28
2023-05-14T17:59:46.665Z,12.32
2023-05-14T18:02:16.634Z,12.37
2023-05-14T18:04:45.063Z,12.37
2023-05-14T18:07:13.659Z,12.43
2023-05-14T18:09:41.969Z,12.44
2023-05-14T18:12:11.029Z,12.43
2023-05-14T18:14:41.917Z,12.48
2023-05-14T18:17:12.011Z,12.47
2023-05-14T18:19:42.198Z,12.46
2023-05-14T18:22:11.603Z,12.50
2023-05-14T18:24:40.155Z,12.48
2023-05-14T18:27:13.533Z,12.48
2023-05-14T18:29:43.771Z,12.51
2023-05-14T18:32:12.581Z,12.57
2023-05-14T18:34:42.635Z,12.56
2023-05-14T18:37:11.567Z,12.48
2023-05-14T18:39:40.281Z,12.47
2023-05-14T18:42:10.553Z,12.44
2023-05-14T18:44:44.479Z,12.44
2023-05-14T18:47:13.504Z,12.43
2023-05-14T18:49:43.741Z,12.43
2023-05-14T18:52:12.616Z,12.43
2023-05-14T18:54:43.666Z,12.51
2023-05-14T18:57:13.994Z,12.44
2023-05-14T18:59:43.033Z,12.44
2023-05-14T19:02:11.820Z,12.41
2023-05-14T19:04:51.124Z,12.40
2023-05-14T19:07:23.167Z,12.41
2023-05-14T19:09:54.181Z,12.44
2023-05-14T19:12:23.647Z,12.47
2023-05-14T19:14:52.998Z,12.47
2023-05-14T19:17:21.824Z,12.50
2023-05-14T19:19:50.571Z,12.53
2023-05-14T19:22:19.702Z,12.56
2023-05-14T19:27:28.304Z,12.60
2023-05-14T19:29:57.212Z,12.63
2023-05-14T19:32:27.330Z,12.60
2023-05-14T19:34:56.388Z,12.61
2023-05-14T19:37:26.794Z,12.58
2023-05-14T19:39:57.205Z,12.54
2023-05-14T19:42:26.432Z,12.51
2023-05-14T19:44:56.473Z,12.51
2023-05-14T19:47:25.735Z,12.57
2023-05-14T19:49:54.630Z,12.60
2023-05-14T19:52:23.281Z,12.63
2023-05-14T19:54:52.651Z,12.65
2023-05-14T19:57:22.462Z,12.68
2023-05-14T19:59:51.177Z,12.64
2023-05-14T20:02:22.285Z,12.68
2023-05-14T20:04:56.034Z,12.65
2023-05-14T20:07:25.252Z,12.74
2023-05-14T20:09:54.513Z,12.73
2023-05-14T20:12:24.794Z,12.67
2023-05-14T20:14:53.409Z,12.69
2023-05-14T20:17:22.002Z,12.73
2023-05-14T20:19:50.492Z,12.67
2023-05-14T20:22:20.770Z,12.57
2023-05-14T20:24:48.999Z,12.56
2023-05-14T20:27:17.756Z,12.54
2023-05-14T20:29:51.299Z,12.61
2023-05-14T20:32:25.083Z,12.74
2023-05-14T20:34:53.674Z,12.83
2023-05-14T20:37:22.216Z,12.71
2023-05-14T20:39:50.765Z,12.61
2023-05-14T20:42:19.237Z,12.60
2023-05-14T20:44:49.059Z,12.74
2023-05-14T20:47:20.448Z,12.69
2023-05-14T20:49:49.213Z,12.61
2023-05-14T20:52:18.010Z,12.57
2023-05-14T20:54:46.612Z,12.61
2023-05-14T20:57:16.887Z,12.58
2023-05-14T20:59:45.076Z,12.58
2023-05-14T21:02:14.966Z,12.58
2023-05-14T21:04:43.618Z,12.54
2023-05-14T21:07:12.023Z,12.54
2023-05-14T21:09:40.418Z,12.53
2023-05-14T21:12:09.448Z,12.50
2023-05-14T21:14:37.722Z,12.50
2023-05-14T21:17:06.370Z,12.50
2023-05-14T21:19:36.168Z,12.50
2023-05-14T21:22:04.282Z,12.48
2023-05-14T21:24:32.472Z,12.48
2023-05-14T21:27:00.721Z,12.50
2023-05-14T21:29:28.968Z,12.50
2023-05-14T21:31:57.449Z,12.54
2023-05-14T21:34:25.714Z,12.54
2023-05-14T21:36:59.404Z,12.54
2023-05-14T21:39:27.680Z,12.56
2023-05-14T21:41:55.953Z,12.56
2023-05-14T21:44:24.190Z,12.57
2023-05-14T21:46:52.481Z,12.58
2023-05-14T21:49:20.665Z,12.61
2023-05-14T21:51:53.068Z,12.63
2023-05-14T21:54:22.977Z,12.63
2023-05-14T21:56:51.241Z,12.58
2023-05-14T21:59:19.431Z,12.61
2023-05-14T22:04:19.134Z,12.57
2023-05-14T22:06:47.613Z,12.56
2023-05-14T22:09:15.754Z,12.56
2023-05-14T22:11:45.451Z,12.56
2023-05-14T22:14:13.679Z,12.56
2023-05-14T22:16:42.152Z,12.60
2023-05-14T22:19:10.550Z,12.69
2023-05-14T22:21:38.769Z,12.75
2023-05-14T22:24:07.605Z,12.78
2023-05-14T22:26:36.431Z,12.77
2023-05-14T22:29:06.044Z,12.77
2023-05-14T22:31:34.281Z,12.71
2023-05-14T22:34:02.409Z,12.67
2023-05-14T22:36:30.626Z,12.68
2023-05-14T22:38:58.882Z,12.71
2023-05-14T22:41:27.110Z,12.83
2023-05-14T22:43:55.354Z,12.85
2023-05-14T22:46:25.153Z,12.87
2023-05-14T22:48:53.428Z,12.92
2023-05-14T22:51:21.639Z,12.94
2023-05-14T22:53:49.827Z,12.95
2023-05-14T22:56:18.270Z,12.91
2023-05-14T22:58:46.446Z,12.91
2023-05-14T23:01:15.009Z,12.80
2023-05-14T23:03:44.577Z,12.81
2023-05-14T23:06:14.577Z,12.85
2023-05-14T23:08:42.743Z,12.85
2023-05-14T23:11:11.308Z,12.83
2023-05-14T23:13:39.510Z,12.87
2023-05-14T23:16:08.081Z,12.81
2023-05-14T23:18:36.387Z,12.77
2023-05-14T23:21:06.180Z,12.69
2023-05-14T23:23:34.371Z,12.65
2023-05-14T23:26:02.889Z,12.61
2023-05-14T23:28:32.091Z,12.61
2023-05-14T23:31:00.396Z,12.60
2023-05-14T23:33:28.605Z,12.61
2023-05-14T23:35:56.947Z,12.61
2023-05-14T23:38:26.779Z,12.65
2023-05-14T23:40:55.023Z,12.65
2023-05-14T23:43:23.768Z,12.65
2023-05-14T23:45:52.126Z,12.63
2023-05-14T23:48:20.555Z,12.69
2023-05-14T23:50:48.883Z,12.71
2023-05-14T23:53:17.139Z,12.73
2023-05-14T23:55:46.791Z,12.74
2023-05-14T23:58:15.098Z,12.77
